createdAt,value
2023-04-29T04:19:19.406Z,45
2023-04-29T04:24:22.358Z,45
2023-04-29T04:29:25.205Z,45
2023-04-29T04:34:28.242Z,45
2023-04-29T04:39:31.065Z,45
2023-04-29T04:44:34.783Z,45
2023-04-29T04:49:37.709Z,45
2023-04-29T04:54:39.875Z,45
2023-04-29T04:59:42.010Z,45
2023-04-29T05:04:44.162Z,45
2023-04-29T05:09:47.026Z,45
2023-04-29T05:14:49.262Z,45
2023-04-29T05:19:51.602Z,45
2023-04-29T05:24:53.502Z,45
2023-04-29T05:29:56.585Z,45
2023-04-29T05:34:58.693Z,45
2023-04-29T05:45:12.979Z,45
2023-04-29T05:50:17.442Z,45
2023-04-29T05:55:20.262Z,46
2023-04-29T06:00:29.493Z,47
2023-04-29T06:05:31.763Z,48
2023-04-29T06:10:33.699Z,50
2023-04-29T06:15:35.970Z,50
2023-04-29T06:20:38.152Z,51
2023-04-29T06:25:41.780Z,51
2023-04-29T06:30:47.030Z,51
2023-04-29T06:35:49.378Z,51
2023-04-29T06:40:52.270Z,51
2023-04-29T06:45:55.217Z,51
2023-04-29T06:50:57.433Z,51
2023-04-29T06:56:02.786Z,51
2023-04-29T07:01:05.159Z,51
2023-04-29T07:06:10.397Z,51
2023-04-29T07:11:12.406Z,50
2023-04-29T07:16:16.280Z,50
2023-04-29T07:21:18.364Z,50
2023-04-29T07:26:21.420Z,50
2023-04-29T07:31:23.555Z,50
2023-04-29T07:36:25.690Z,50
2023-04-29T07:41:28.501Z,51
2023-04-29T07:46:30.643Z,51
2023-04-29T07:51:33.066Z,51
2023-04-29T07:56:37.849Z,51
2023-04-29T08:01:40.731Z,51
2023-04-29T08:06:43.809Z,51
2023-04-29T08:11:47.395Z,51
2023-04-29T08:16:50.308Z,51
2023-04-29T08:21:53.362Z,51
2023-04-29T08:26:55.400Z,51
2023-04-29T08:31:57.711Z,51
2023-04-29T08:36:59.902Z,50
2023-04-29T08:42:01.988Z,50
2023-04-29T08:47:04.873Z,49
2023-04-29T08:52:07.023Z,49
2023-04-29T08:57:09.138Z,49
2023-04-29T09:02:13.042Z,49
2023-04-29T09:07:15.150Z,49
2023-04-29T09:12:18.761Z,49
2023-04-29T09:17:22.461Z,48
2023-04-29T09:22:24.582Z,48
2023-04-29T09:27:28.212Z,48
2023-04-29T09:32:30.372Z,48
2023-04-29T09:37:37.297Z,48
2023-04-29T09:42:39.284Z,48
2023-04-29T09:47:42.204Z,48
2023-04-29T09:52:44.345Z,48
2023-04-29T09:57:46.660Z,48
2023-04-29T10:02:48.994Z,47
2023-04-29T10:07:51.932Z,47
2023-04-29T10:12:54.748Z,47
2023-04-29T10:17:58.462Z,47
2023-04-29T10:23:00.634Z,47
2023-04-29T10:28:03.751Z,47
2023-04-29T10:33:05.829Z,46
2023-04-29T10:38:08.882Z,47
2023-04-29T10:43:12.459Z,47
2023-04-29T10:48:14.708Z,48
2023-04-29T10:53:18.481Z,49
2023-04-29T10:58:21.301Z,50
2023-04-29T11:03:25.901Z,50
2023-04-29T11:08:28.175Z,50
2023-04-29T11:13:30.307Z,49
2023-04-29T11:18:33.182Z,49
2023-04-29T11:23:35.502Z,49
2023-04-29T11:28:38.539Z,49
2023-04-29T11:33:40.621Z,48
2023-04-29T11:38:42.781Z,48
2023-04-29T11:43:45.043Z,49
2023-04-29T11:48:47.110Z,48
2023-04-29T11:53:50.954Z,48
2023-04-29T11:58:56.408Z,48
2023-04-29T12:04:00.543Z,48
2023-04-29T12:09:02.347Z,47
2023-04-29T12:14:04.554Z,47
2023-04-29T12:19:06.728Z,46
2023-04-29T12:24:09.471Z,46
2023-04-29T12:29:15.674Z,45
2023-04-29T12:34:19.319Z,44
2023-04-29T12:39:21.468Z,44
2023-04-29T12:44:26.710Z,43
2023-04-29T12:49:28.826Z,42
2023-04-29T12:54:31.148Z,42
2023-04-29T12:59:33.324Z,42
2023-04-29T13:04:35.616Z,42
2023-04-29T13:09:37.624Z,41
2023-04-29T13:14:41.360Z,41
2023-04-29T13:19:51.005Z,41
2023-04-29T13:24:45.767Z,41
2023-04-29T13:29:55.297Z,41
2023-04-29T13:34:57.404Z,41
2023-04-29T13:39:59.583Z,41
2023-04-29T13:45:01.987Z,41
2023-04-29T13:50:22.153Z,42
2023-04-29T14:00:20.019Z,42
2023-04-29T14:05:12.516Z,42
2023-04-29T14:10:14.382Z,43
2023-04-29T14:15:16.532Z,43
2023-04-29T14:20:19.583Z,44
2023-04-29T14:25:21.709Z,44
2023-04-29T14:30:23.924Z,45
2023-04-29T14:35:26.141Z,46
2023-04-29T14:40:29.935Z,46
2023-04-29T14:45:31.986Z,47
2023-04-29T14:50:34.295Z,47
2023-04-29T14:55:36.394Z,48
2023-04-29T15:00:38.615Z,48
2023-04-29T15:05:41.586Z,48
2023-04-29T15:10:43.845Z,48
2023-04-29T15:15:47.437Z,48
2023-04-29T15:20:50.489Z,49
2023-04-29T15:25:52.623Z,49
2023-04-29T15:30:54.719Z,49
2023-04-29T15:35:56.869Z,49
2023-04-29T15:41:05.312Z,49
2023-04-29T15:51:09.644Z,50
2023-04-29T15:56:11.784Z,50
2023-04-29T16:01:18.799Z,50
2023-04-29T16:06:20.889Z,50
2023-04-29T16:11:23.228Z,49
2023-04-29T16:16:25.494Z,49
2023-04-29T16:21:27.503Z,48
2023-04-29T16:26:36.466Z,48
2023-04-29T16:31:38.549Z,48
2023-04-29T16:36:40.602Z,48
2023-04-29T16:41:42.778Z,49
2023-04-29T16:46:45.128Z,49
2023-04-29T16:51:47.134Z,49
2023-04-29T16:56:51.273Z,49
2023-04-29T17:01:55.417Z,49
2023-04-29T17:06:59.676Z,48
2023-04-29T17:12:02.872Z,47
2023-04-29T17:17:08.811Z,46
2023-04-29T17:22:13.199Z,45
2023-04-29T17:27:15.552Z,44
2023-04-29T17:32:18.561Z,44
2023-04-29T17:37:20.684Z,43
2023-04-29T17:42:23.735Z,43
2023-04-29T17:47:25.870Z,43
2023-04-29T17:52:29.507Z,43
2023-04-29T17:57:31.699Z,42
2023-04-29T18:02:35.353Z,42
2023-04-29T18:07:37.596Z,42
2023-04-29T18:12:46.201Z,42
2023-04-29T18:17:48.220Z,42
2023-04-29T18:22:51.964Z,43
2023-04-29T18:28:03.569Z,43
2023-04-29T18:32:58.726Z,43
2023-04-29T18:38:03.908Z,44
2023-04-29T18:43:06.236Z,44
2023-04-29T18:48:08.440Z,44
2023-04-29T18:53:10.469Z,45
2023-04-29T18:58:12.640Z,45
2023-04-29T19:03:17.632Z,45
2023-04-29T19:08:20.685Z,45
2023-04-29T19:13:22.953Z,46
2023-04-29T19:18:25.073Z,46
2023-04-29T19:23:28.769Z,46
2023-04-29T19:28:31.041Z,46
2023-04-29T19:33:33.142Z,46
2023-04-29T19:38:35.330Z,46
2023-04-29T19:43:40.725Z,46
2023-04-29T19:48:42.808Z,46
2023-04-29T19:53:46.583Z,46
2023-04-29T19:58:48.700Z,46
2023-04-29T20:03:50.811Z,46
2023-04-29T20:08:54.156Z,46
2023-04-29T20:13:56.298Z,46
2023-04-29T20:18:58.454Z,46
2023-04-29T20:24:03.711Z,46
2023-04-29T20:29:05.961Z,46
2023-04-29T20:34:08.209Z,46
2023-04-29T20:39:10.280Z,46
2023-04-29T20:44:12.545Z,46
2023-04-29T20:49:14.631Z,46
2023-04-29T20:54:16.825Z,46
2023-04-29T20:59:19.066Z,45
2023-04-29T21:04:22.748Z,45
2023-04-29T21:09:24.960Z,44
2023-04-29T21:14:29.401Z,44
2023-04-29T21:19:32.277Z,44
2023-04-29T21:24:34.432Z,44
2023-04-29T21:29:40.758Z,43
2023-04-29T21:34:42.753Z,43
2023-04-29T21:39:44.890Z,43
2023-04-29T21:44:47.260Z,43
2023-04-29T21:49:49.397Z,43
2023-04-29T21:54:51.575Z,43
2023-04-29T21:59:56.211Z,43
2023-04-29T22:04:59.801Z,43
2023-04-29T22:10:06.597Z,42
2023-04-29T22:15:20.893Z,42
2023-04-29T22:20:12.387Z,42
2023-04-29T22:25:16.034Z,42
2023-04-29T22:30:18.638Z,42
2023-04-29T22:35:21.472Z,42
2023-04-29T22:40:23.725Z,42
2023-04-29T22:45:29.145Z,42
2023-04-29T22:50:31.231Z,42
2023-04-29T22:55:33.411Z,42
2023-04-29T23:00:36.316Z,42
2023-04-29T23:05:43.089Z,42
2023-04-29T23:10:46.188Z,43
